createdAt,value
2023-03-26T00:01:29.785Z,68.95
2023-03-26T00:03:57.862Z,68.95
2023-03-26T00:06:25.611Z,69.05
2023-03-26T00:08:53.143Z,68.97
2023-03-26T00:11:20.958Z,68.95
2023-03-26T00:13:48.523Z,68.97
2023-03-26T00:16:16.805Z,69.04
2023-03-26T00:18:44.351Z,68.94
2023-03-26T00:21:12.041Z,69.02
2023-03-26T00:23:39.602Z,69.16
2023-03-26T00:26:10.853Z,69.22
2023-03-26T00:28:40.653Z,69.20
2023-03-26T00:31:08.552Z,69.22
2023-03-26T00:33:41.532Z,69.27
2023-03-26T00:36:10.556Z,69.28
2023-03-26T00:38:39.163Z,69.27
2023-03-26T00:41:07.181Z,69.29
2023-03-26T00:43:34.833Z,69.30
2023-03-26T00:46:02.412Z,69.41
2023-03-26T00:48:44.153Z,69.48
2023-03-26T00:51:15.506Z,69.50
2023-03-26T00:53:43.729Z,69.67
2023-03-26T00:56:13.119Z,69.84
2023-03-26T00:58:40.825Z,70.03
2023-03-26T01:01:08.497Z,70.11
2023-03-26T01:03:37.029Z,70.62
2023-03-26T01:06:08.229Z,70.64
2023-03-26T01:08:35.800Z,70.73
2023-03-26T01:11:03.496Z,71.07
2023-03-26T01:13:31.359Z,71.25
2023-03-26T01:16:02.137Z,71.31
2023-03-26T01:18:33.833Z,71.37
2023-03-26T01:21:05.406Z,71.43
2023-03-26T01:23:33.059Z,71.51
2023-03-26T01:26:00.623Z,71.60
2023-03-26T01:28:28.275Z,71.65
2023-03-26T01:30:58.572Z,71.67
2023-03-26T01:33:30.228Z,71.76
2023-03-26T01:35:58.120Z,71.72
2023-03-26T01:38:25.976Z,71.84
2023-03-26T01:40:53.673Z,71.83
2023-03-26T01:43:21.375Z,71.89
2023-03-26T01:45:49.001Z,71.87
2023-03-26T01:48:17.599Z,71.90
2023-03-26T01:50:45.160Z,71.98
2023-03-26T01:53:12.715Z,71.99
2023-03-26T01:55:42.607Z,71.98
2023-03-26T01:58:10.584Z,72.00
2023-03-26T02:00:38.178Z,72.04
2023-03-26T02:03:06.097Z,71.98
2023-03-26T02:05:33.841Z,72.04
2023-03-26T02:08:01.681Z,72.07
2023-03-26T02:10:29.632Z,72.09
2023-03-26T02:12:57.235Z,72.02
2023-03-26T02:15:24.835Z,72.10
2023-03-26T02:17:53.511Z,72.10
2023-03-26T02:20:21.542Z,72.07
2023-03-26T02:22:52.237Z,72.16
2023-03-26T02:25:20.049Z,72.28
2023-03-26T02:27:47.544Z,72.31
2023-03-26T02:30:15.485Z,72.30
2023-03-26T02:32:44.061Z,72.34
2023-03-26T02:35:12.007Z,72.40
2023-03-26T02:37:46.982Z,72.46
2023-03-26T02:40:14.652Z,72.59
2023-03-26T02:42:42.319Z,72.76
2023-03-26T02:45:10.099Z,72.86
2023-03-26T02:47:37.783Z,72.99
2023-03-26T02:50:05.352Z,73.00
2023-03-26T02:52:33.800Z,73.16
2023-03-26T02:55:01.452Z,73.30
2023-03-26T02:57:29.188Z,73.34
2023-03-26T02:59:56.855Z,73.33
2023-03-26T03:02:25.784Z,73.41
2023-03-26T03:05:01.808Z,73.40
2023-03-26T03:07:29.626Z,73.44
2023-03-26T03:10:02.367Z,73.39
2023-03-26T03:12:30.247Z,73.34
2023-03-26T03:14:57.913Z,73.26
2023-03-26T03:17:25.535Z,73.20
2023-03-26T03:19:55.516Z,73.21
2023-03-26T03:22:23.105Z,73.18
2023-03-26T03:25:00.115Z,73.04
2023-03-26T03:27:27.885Z,73.06
2023-03-26T03:29:56.064Z,73.07
2023-03-26T03:32:23.827Z,73.11
2023-03-26T03:34:51.480Z,73.21
2023-03-26T03:37:19.056Z,73.37
2023-03-26T03:39:46.807Z,73.44
2023-03-26T03:42:14.266Z,73.63
2023-03-26T03:44:41.949Z,73.70
2023-03-26T03:47:13.748Z,73.78
2023-03-26T03:49:41.337Z,73.74
2023-03-26T03:52:08.857Z,73.86
2023-03-26T03:54:36.395Z,73.85
2023-03-26T03:57:03.954Z,73.97
2023-03-26T03:59:31.760Z,73.99
2023-03-26T04:01:59.425Z,74.02
2023-03-26T04:04:26.968Z,74.05
2023-03-26T04:06:55.096Z,74.07
2023-03-26T04:09:22.738Z,73.99
2023-03-26T04:11:51.153Z,73.89
2023-03-26T04:14:18.756Z,73.80
2023-03-26T04:16:46.479Z,73.71
2023-03-26T04:19:14.602Z,73.73
2023-03-26T04:21:42.895Z,73.74
2023-03-26T04:24:11.175Z,73.76
2023-03-26T04:26:38.737Z,73.63
2023-03-26T04:29:06.288Z,73.53
2023-03-26T04:31:34.689Z,73.40
2023-03-26T04:34:05.576Z,73.39
2023-03-26T04:36:35.695Z,73.43
2023-03-26T04:39:05.720Z,73.51
2023-03-26T04:41:33.557Z,73.61
2023-03-26T04:44:02.894Z,73.69
2023-03-26T04:46:33.746Z,73.75
2023-03-26T04:49:01.937Z,73.82
2023-03-26T04:51:32.242Z,73.95
2023-03-26T04:54:00.012Z,74.07
2023-03-26T04:56:29.941Z,74.10
2023-03-26T04:58:57.853Z,74.00
2023-03-26T05:01:28.298Z,73.82
2023-03-26T05:03:57.048Z,73.77
2023-03-26T05:06:25.424Z,73.79
2023-03-26T05:08:52.942Z,73.61
2023-03-26T05:11:20.580Z,73.44
2023-03-26T05:13:48.304Z,73.46
2023-03-26T05:16:16.126Z,73.43
2023-03-26T05:18:43.758Z,73.25
2023-03-26T05:21:11.425Z,73.24
2023-03-26T05:23:39.010Z,73.25
2023-03-26T05:26:07.745Z,73.17
2023-03-26T05:28:35.318Z,73.12
2023-03-26T05:31:02.933Z,73.19
2023-03-26T05:33:30.731Z,73.14
2023-03-26T05:35:58.729Z,73.04
2023-03-26T05:38:28.928Z,72.89
2023-03-26T05:40:56.834Z,72.83
2023-03-26T05:43:24.517Z,72.82
2023-03-26T05:45:52.460Z,72.92
2023-03-26T05:48:21.771Z,72.89
2023-03-26T05:50:49.596Z,72.52
2023-03-26T05:53:18.302Z,72.60
2023-03-26T05:55:45.906Z,72.77
2023-03-26T05:58:13.614Z,72.46
2023-03-26T06:00:41.698Z,72.07
2023-03-26T06:03:12.987Z,71.88
2023-03-26T06:05:41.046Z,71.75
2023-03-26T06:08:08.633Z,71.80
2023-03-26T06:10:36.291Z,71.67
2023-03-26T06:13:04.151Z,71.51
2023-03-26T06:15:31.733Z,71.53
2023-03-26T06:17:59.373Z,71.44
2023-03-26T06:20:27.052Z,71.19
2023-03-26T06:22:55.132Z,71.22
2023-03-26T06:25:22.769Z,71.11
2023-03-26T06:27:50.502Z,71.02
2023-03-26T06:30:18.067Z,71.08
2023-03-26T06:32:45.849Z,70.86
2023-03-26T06:35:13.666Z,71.12
2023-03-26T06:37:42.509Z,70.86
2023-03-26T06:40:10.098Z,70.46
2023-03-26T06:43:08.625Z,70.66
2023-03-26T06:45:28.697Z,70.78
2023-03-26T06:47:56.778Z,70.90
2023-03-26T06:50:24.480Z,70.89
2023-03-26T06:52:53.325Z,70.54
2023-03-26T06:55:20.964Z,70.02
2023-03-26T06:57:48.676Z,69.17
2023-03-26T07:00:17.867Z,69.02
2023-03-26T07:02:46.047Z,68.90
2023-03-26T07:05:13.866Z,68.81
2023-03-26T07:07:46.963Z,69.16
2023-03-26T07:10:15.971Z,68.62
2023-03-26T07:12:43.654Z,68.90
2023-03-26T07:15:12.481Z,67.90
2023-03-26T07:17:40.431Z,67.25
2023-03-26T07:20:08.214Z,66.71
2023-03-26T07:22:35.845Z,66.92
2023-03-26T07:25:05.898Z,66.51
2023-03-26T07:27:33.489Z,66.89
2023-03-26T07:30:01.576Z,66.47
2023-03-26T07:32:29.251Z,65.54
2023-03-26T07:34:58.510Z,64.93
2023-03-26T07:37:26.157Z,65.43
2023-03-26T07:39:57.644Z,65.71
2023-03-26T07:42:28.419Z,65.66
2023-03-26T07:44:56.270Z,66.50
2023-03-26T07:47:26.161Z,66.13
2023-03-26T07:49:54.032Z,66.33
2023-03-26T07:52:22.111Z,66.13
2023-03-26T07:54:52.633Z,66.04
2023-03-26T07:57:40.927Z,66.09
2023-03-26T08:00:10.317Z,66.27
2023-03-26T08:02:41.223Z,66.23
2023-03-26T08:05:10.447Z,66.30
2023-03-26T08:07:41.652Z,66.00
2023-03-26T08:10:10.318Z,65.84
2023-03-26T08:12:38.222Z,65.88
2023-03-26T08:15:06.084Z,66.00
2023-03-26T08:17:38.017Z,65.29
2023-03-26T08:20:12.138Z,65.01
2023-03-26T08:22:43.268Z,64.92
2023-03-26T08:25:12.028Z,65.59
2023-03-26T08:27:40.322Z,64.03
2023-03-26T08:30:10.292Z,63.93
2023-03-26T08:32:38.494Z,63.57
2023-03-26T08:35:06.720Z,63.67
2023-03-26T08:37:34.591Z,63.37
2023-03-26T08:40:02.617Z,63.58
2023-03-26T08:42:40.845Z,63.61
2023-03-26T08:45:08.728Z,64.44
2023-03-26T08:47:38.653Z,64.59
2023-03-26T08:50:06.513Z,63.76
2023-03-26T08:52:34.664Z,61.36
2023-03-26T08:55:04.370Z,60.91
2023-03-26T08:57:31.923Z,60.81
2023-03-26T09:00:02.494Z,60.50
2023-03-26T09:02:30.611Z,61.09
2023-03-26T09:04:58.781Z,61.81
2023-03-26T09:07:26.994Z,61.93
2023-03-26T09:09:54.968Z,61.87
2023-03-26T09:12:25.311Z,62.16
2023-03-26T09:14:53.340Z,62.73
2023-03-26T09:17:21.391Z,62.79
2023-03-26T09:19:50.101Z,63.52
2023-03-26T09:22:18.177Z,63.76
2023-03-26T09:24:45.991Z,63.17
2023-03-26T09:27:13.838Z,61.73
2023-03-26T09:29:42.624Z,62.40
2023-03-26T09:32:10.358Z,62.45
2023-03-26T09:34:38.338Z,60.92
2023-03-26T09:37:06.614Z,62.17
2023-03-26T09:39:37.837Z,61.37
2023-03-26T09:42:06.074Z,61.44
2023-03-26T09:44:34.415Z,61.49
2023-03-26T09:47:02.211Z,60.46
2023-03-26T09:49:29.935Z,60.32
2023-03-26T09:51:57.604Z,60.07
2023-03-26T09:54:25.380Z,60.20
2023-03-26T09:56:53.044Z,59.13
2023-03-26T09:59:20.784Z,58.39
2023-03-26T10:01:48.502Z,58.59
2023-03-26T10:04:16.109Z,59.01
2023-03-26T10:06:44.546Z,58.60
2023-03-26T10:09:12.502Z,58.03
2023-03-26T10:11:40.590Z,58.18
2023-03-26T10:14:08.304Z,58.32
2023-03-26T10:16:36.380Z,58.71
2023-03-26T10:19:04.509Z,59.84
2023-03-26T10:21:34.883Z,58.80
2023-03-26T10:24:03.448Z,58.23
2023-03-26T10:26:33.316Z,56.81
2023-03-26T10:29:01.630Z,57.15
2023-03-26T10:31:29.347Z,55.74
2023-03-26T10:33:56.858Z,55.51
2023-03-26T10:36:27.848Z,56.38
2023-03-26T10:38:55.642Z,57.13
2023-03-26T10:41:23.555Z,54.74
2023-03-26T10:44:01.287Z,54.32
2023-03-26T10:46:33.528Z,54.31
2023-03-26T10:49:03.675Z,54.68
2023-03-26T10:51:31.359Z,55.56
2023-03-26T10:54:01.061Z,53.55
2023-03-26T10:56:28.682Z,54.04
2023-03-26T10:58:57.001Z,54.88
2023-03-26T11:01:25.186Z,54.86
2023-03-26T11:03:52.811Z,54.72
2023-03-26T11:06:20.512Z,55.35
2023-03-26T11:08:48.169Z,55.67
2023-03-26T11:11:15.821Z,55.08
2023-03-26T11:13:43.458Z,54.98
2023-03-26T11:16:11.185Z,55.62
2023-03-26T11:18:38.957Z,55.71
2023-03-26T11:21:19.403Z,55.30
2023-03-26T11:23:48.293Z,54.94
2023-03-26T11:26:32.920Z,54.23
2023-03-26T11:29:05.171Z,53.88
2023-03-26T11:31:53.051Z,54.26
2023-03-26T11:34:20.887Z,53.26
2023-03-26T11:36:48.445Z,52.88
2023-03-26T11:39:16.138Z,52.03
2023-03-26T11:41:44.408Z,51.96
2023-03-26T11:44:14.713Z,52.83
2023-03-26T11:46:45.605Z,52.22
2023-03-26T11:49:13.800Z,52.27
2023-03-26T11:51:41.547Z,51.82
2023-03-26T11:54:11.869Z,52.20
2023-03-26T11:56:39.492Z,52.42
2023-03-26T11:59:07.581Z,52.58
2023-03-26T12:01:37.947Z,51.15
2023-03-26T12:04:06.222Z,51.77
2023-03-26T12:06:34.498Z,52.53
2023-03-26T12:09:02.027Z,52.68
2023-03-26T12:11:34.676Z,52.43
2023-03-26T12:14:03.911Z,51.52
2023-03-26T12:16:31.626Z,51.18
2023-03-26T12:19:01.769Z,50.82
2023-03-26T12:21:31.520Z,51.43
2023-03-26T12:23:59.561Z,50.54
2023-03-26T12:26:27.796Z,50.16
2023-03-26T12:28:55.412Z,50.85
2023-03-26T12:31:26.531Z,50.90
2023-03-26T12:33:54.372Z,50.86
2023-03-26T12:36:23.332Z,49.20
2023-03-26T12:39:16.939Z,48.88
2023-03-26T12:43:51.428Z,49.80
2023-03-26T12:44:47.212Z,48.14
2023-03-26T12:48:00.710Z,47.50
2023-03-26T12:50:03.752Z,48.31
2023-03-26T12:52:31.332Z,48.97
2023-03-26T12:54:58.828Z,48.17
2023-03-26T12:57:26.570Z,48.23
2023-03-26T12:59:55.355Z,48.24
2023-03-26T13:02:24.214Z,48.58
2023-03-26T13:05:05.045Z,48.03
2023-03-26T13:07:35.736Z,47.85
2023-03-26T13:10:03.336Z,47.61
2023-03-26T13:12:30.941Z,47.75
2023-03-26T13:14:58.771Z,48.08
2023-03-26T13:17:27.038Z,48.87
2023-03-26T13:19:54.690Z,48.99
2023-03-26T13:22:22.458Z,48.44
2023-03-26T13:24:50.107Z,47.86
2023-03-26T13:27:17.769Z,47.79
2023-03-26T13:29:46.484Z,48.58
2023-03-26T13:32:14.565Z,48.07
2023-03-26T13:34:42.255Z,47.67
2023-03-26T13:37:11.012Z,46.46
2023-03-26T13:39:38.619Z,46.68
2023-03-26T13:42:07.195Z,47.18
2023-03-26T13:44:35.433Z,47.86
2023-03-26T13:47:03.102Z,48.58
2023-03-26T13:49:37.792Z,47.56
2023-03-26T13:52:05.957Z,47.36
2023-03-26T13:54:33.596Z,47.81
2023-03-26T13:57:01.238Z,47.04
2023-03-26T13:59:29.084Z,46.44
2023-03-26T14:01:56.736Z,47.18
2023-03-26T14:04:24.419Z,46.70
2023-03-26T14:06:54.190Z,47.54
2023-03-26T14:09:23.363Z,47.26
2023-03-26T14:11:50.927Z,46.93
2023-03-26T14:14:20.850Z,46.81
2023-03-26T14:16:48.401Z,46.24
2023-03-26T14:19:16.150Z,46.84
2023-03-26T14:21:43.955Z,46.66
2023-03-26T14:24:11.896Z,47.05
2023-03-26T14:26:40.527Z,47.34
2023-03-26T14:29:08.548Z,47.45
2023-03-26T14:31:36.127Z,48.17
2023-03-26T14:34:05.519Z,47.51
2023-03-26T14:36:33.037Z,48.05
2023-03-26T14:39:01.341Z,47.92
2023-03-26T14:41:28.967Z,48.44
2023-03-26T14:43:56.579Z,48.18
2023-03-26T14:46:24.386Z,48.28
2023-03-26T14:48:52.384Z,48.30
2023-03-26T14:51:21.801Z,48.08
2023-03-26T14:53:52.367Z,48.66
2023-03-26T14:56:20.099Z,48.41
2023-03-26T14:58:47.657Z,48.26
2023-03-26T15:01:15.950Z,48.19
2023-03-26T15:03:48.904Z,47.88
2023-03-26T15:06:17.052Z,48.20
2023-03-26T15:08:44.521Z,48.58
2023-03-26T15:11:12.592Z,48.18
2023-03-26T15:13:40.764Z,46.94
2023-03-26T15:16:09.510Z,46.82
2023-03-26T15:18:37.195Z,47.37
2023-03-26T15:21:05.192Z,47.33
2023-03-26T15:23:32.871Z,47.76
2023-03-26T15:26:00.546Z,47.08
2023-03-26T15:28:28.361Z,47.52
2023-03-26T15:30:56.231Z,47.58
2023-03-26T15:33:27.279Z,47.41
2023-03-26T15:35:56.357Z,47.53
2023-03-26T15:38:25.594Z,48.19
2023-03-26T15:40:54.636Z,47.45
2023-03-26T15:43:23.948Z,47.52
2023-03-26T15:45:53.906Z,47.80
2023-03-26T15:48:22.054Z,47.13
2023-03-26T15:50:50.841Z,47.30
2023-03-26T15:53:23.754Z,47.37
2023-03-26T15:55:51.408Z,47.05
2023-03-26T15:58:19.147Z,47.12
2023-03-26T16:00:47.086Z,47.31
2023-03-26T16:03:14.946Z,47.83
2023-03-26T16:05:42.939Z,47.07
2023-03-26T16:08:11.203Z,47.14
2023-03-26T16:10:41.033Z,47.24
2023-03-26T16:13:11.032Z,47.70
2023-03-26T16:15:38.678Z,47.96
2023-03-26T16:18:06.699Z,48.23
2023-03-26T16:20:34.597Z,48.11
2023-03-26T16:23:04.980Z,48.40
2023-03-26T16:25:33.313Z,47.68
2023-03-26T16:28:01.531Z,47.80
2023-03-26T16:30:30.557Z,48.34
2023-03-26T16:32:59.189Z,48.79
2023-03-26T16:35:27.410Z,49.08
2023-03-26T16:37:57.816Z,49.21
2023-03-26T16:40:26.039Z,49.41
2023-03-26T16:42:53.622Z,49.45
2023-03-26T16:45:21.508Z,49.76
2023-03-26T16:47:50.292Z,50.06
2023-03-26T16:50:18.839Z,50.15
2023-03-26T16:52:46.626Z,50.39
2023-03-26T16:55:14.925Z,50.56
2023-03-26T16:57:42.657Z,50.88
2023-03-26T17:00:16.688Z,51.06
2023-03-26T17:02:46.398Z,51.20
2023-03-26T17:05:14.443Z,51.39
2023-03-26T17:07:42.186Z,51.56
2023-03-26T17:10:10.158Z,51.65
2023-03-26T17:12:37.749Z,51.83
2023-03-26T17:15:07.020Z,52.07
2023-03-26T17:17:36.834Z,52.43
2023-03-26T17:20:09.366Z,52.57
2023-03-26T17:22:37.172Z,52.81
2023-03-26T17:25:05.438Z,53.10
2023-03-26T17:27:34.909Z,53.29
2023-03-26T17:30:07.531Z,53.24
2023-03-26T17:32:38.660Z,53.34
2023-03-26T17:35:13.919Z,53.45
2023-03-26T17:37:44.760Z,53.75
2023-03-26T17:40:12.545Z,54.06
2023-03-26T17:42:40.163Z,54.25
2023-03-26T17:45:08.271Z,54.19
2023-03-26T17:47:38.307Z,54.21
2023-03-26T17:50:06.339Z,54.60
2023-03-26T17:52:34.076Z,54.60
2023-03-26T17:55:02.251Z,54.99
2023-03-26T17:57:29.807Z,55.31
2023-03-26T17:59:57.529Z,55.18
2023-03-26T18:02:25.335Z,55.25
2023-03-26T18:04:53.555Z,55.20
2023-03-26T18:07:23.118Z,55.30
2023-03-26T18:09:50.892Z,55.45
2023-03-26T18:12:18.488Z,55.70
2023-03-26T18:14:46.406Z,56.06
2023-03-26T18:17:14.074Z,56.47
2023-03-26T18:19:41.548Z,57.14
2023-03-26T18:22:09.805Z,57.37
2023-03-26T18:24:37.306Z,57.66
2023-03-26T18:27:04.901Z,58.07
2023-03-26T18:29:32.644Z,58.12
2023-03-26T18:32:03.542Z,58.16
2023-03-26T18:34:31.991Z,58.05
2023-03-26T18:37:01.863Z,57.97
2023-03-26T18:39:30.811Z,57.69
2023-03-26T18:41:58.606Z,57.63
2023-03-26T18:44:26.368Z,58.78
2023-03-26T18:46:57.712Z,59.72
2023-03-26T18:49:29.390Z,60.74
2023-03-26T18:52:45.723Z,60.54
2023-03-26T18:55:16.464Z,60.96
2023-03-26T18:58:05.264Z,60.74
2023-03-26T19:00:46.901Z,60.76
2023-03-26T19:03:17.938Z,60.91
2023-03-26T19:05:47.406Z,61.09
2023-03-26T19:08:17.244Z,61.36
2023-03-26T19:10:48.288Z,61.44
2023-03-26T19:13:18.175Z,61.42
2023-03-26T19:15:53.604Z,61.36
2023-03-26T19:18:22.186Z,61.38
2023-03-26T19:20:52.348Z,61.55
2023-03-26T19:23:22.296Z,61.86
2023-03-26T19:25:54.546Z,61.87
2023-03-26T19:28:30.727Z,61.59
2023-03-26T19:31:39.181Z,61.88
2023-03-26T19:34:06.874Z,62.20
2023-03-26T19:36:38.385Z,61.93
2023-03-26T19:39:08.319Z,61.96
2023-03-26T19:41:36.485Z,62.85
2023-03-26T19:44:04.398Z,62.65
2023-03-26T19:46:32.522Z,62.68
2023-03-26T19:49:01.783Z,62.68
2023-03-26T19:51:29.834Z,62.90
2023-03-26T19:53:59.609Z,63.41
2023-03-26T19:56:28.713Z,63.95
2023-03-26T19:58:57.272Z,64.47
2023-03-26T20:01:28.133Z,64.99
2023-03-26T20:03:59.950Z,64.96
2023-03-26T20:09:19.555Z,65.22
2023-03-26T20:11:47.455Z,65.36
2023-03-26T20:14:15.163Z,65.38
2023-03-26T20:16:45.318Z,66.28
2023-03-26T20:19:16.344Z,66.82
2023-03-26T20:21:46.050Z,67.23
2023-03-26T20:24:14.680Z,67.50
2023-03-26T20:26:43.092Z,67.57
2023-03-26T20:29:11.735Z,67.39
2023-03-26T20:31:41.840Z,67.19
2023-03-26T20:34:09.672Z,67.93
2023-03-26T20:36:38.375Z,68.16
2023-03-26T20:39:06.587Z,68.24
2023-03-26T20:41:34.158Z,68.37
2023-03-26T20:44:03.787Z,68.85
2023-03-26T20:46:33.240Z,69.14
2023-03-26T20:49:01.167Z,69.79
2023-03-26T20:51:29.201Z,70.90
2023-03-26T20:53:57.974Z,70.89
2023-03-26T20:56:27.168Z,71.25
2023-03-26T20:59:09.798Z,71.19
2023-03-26T21:01:39.096Z,71.57
2023-03-26T21:04:06.599Z,71.62
2023-03-26T21:06:34.147Z,71.84
2023-03-26T21:09:02.805Z,71.89
2023-03-26T21:11:30.327Z,71.77
2023-03-26T21:13:57.822Z,72.37
2023-03-26T21:16:25.416Z,72.53
2023-03-26T21:18:54.387Z,72.29
2023-03-26T21:21:22.324Z,72.70
2023-03-26T21:23:52.849Z,72.77
2023-03-26T21:26:20.469Z,72.33
2023-03-26T21:28:48.082Z,72.31
2023-03-26T21:31:15.853Z,72.41
2023-03-26T21:33:44.264Z,72.58
2023-03-26T21:36:12.181Z,72.79
2023-03-26T21:38:39.963Z,72.95
2023-03-26T21:41:07.794Z,73.00
2023-03-26T21:43:35.312Z,73.39
2023-03-26T21:46:03.438Z,73.30
2023-03-26T21:48:31.189Z,73.16
2023-03-26T21:51:02.422Z,73.02
2023-03-26T21:53:30.408Z,72.83
2023-03-26T21:55:57.985Z,72.61
2023-03-26T21:58:25.579Z,72.73
2023-03-26T22:00:53.594Z,72.88
2023-03-26T22:03:21.435Z,72.73
2023-03-26T22:05:49.135Z,73.06
2023-03-26T22:08:16.913Z,73.17
2023-03-26T22:10:44.879Z,73.61
2023-03-26T22:13:12.438Z,73.95
2023-03-26T22:15:40.222Z,74.14
2023-03-26T22:18:07.866Z,74.89
2023-03-26T22:20:36.479Z,76.03
2023-03-26T22:23:05.020Z,76.83
2023-03-26T22:25:32.994Z,77.06
2023-03-26T22:28:02.021Z,77.66
2023-03-26T22:30:31.105Z,78.30
2023-03-26T22:32:58.908Z,78.32
2023-03-26T22:35:26.756Z,78.02
2023-03-26T22:38:00.378Z,78.31
2023-03-26T22:40:28.704Z,78.31
2023-03-26T22:42:56.877Z,78.14
2023-03-26T22:45:24.531Z,78.05
2023-03-26T22:48:09.395Z,77.97
2023-03-26T22:50:36.998Z,77.85
2023-03-26T22:53:04.820Z,77.76
2023-03-26T22:55:32.433Z,78.15
2023-03-26T22:57:59.992Z,78.42
2023-03-26T23:00:27.931Z,78.63
2023-03-26T23:03:00.827Z,78.65
2023-03-26T23:05:29.436Z,78.78
2023-03-26T23:07:57.273Z,79.14
2023-03-26T23:10:24.859Z,79.39
2023-03-26T23:12:52.428Z,79.64
2023-03-26T23:15:27.580Z,79.89
2023-03-26T23:17:56.626Z,79.91
2023-03-26T23:20:24.251Z,79.84
2023-03-26T23:22:52.564Z,79.62
2023-03-26T23:25:20.284Z,79.69
2023-03-26T23:27:48.452Z,80.01
2023-03-26T23:30:16.778Z,80.08
2023-03-26T23:32:44.446Z,80.06
2023-03-26T23:35:12.015Z,79.96
2023-03-26T23:37:42.461Z,80.03
2023-03-26T23:40:10.795Z,80.11
2023-03-26T23:42:38.411Z,80.23
2023-03-26T23:45:06.230Z,80.24
2023-03-26T23:47:37.344Z,80.15
2023-03-26T23:50:04.871Z,80.43
2023-03-26T23:52:32.599Z,80.20
2023-03-26T23:55:02.057Z,80.33
2023-03-26T23:57:37.087Z,80.45
